createdAt,value
2024-02-18T00:00:08.869Z,15.83
2024-02-18T00:02:38.087Z,16.53
2024-02-18T00:05:07.937Z,15.73
2024-02-18T00:07:35.262Z,15.17
2024-02-18T00:10:02.352Z,15.77
2024-02-18T00:12:29.431Z,15.90
2024-02-18T00:14:56.340Z,16.67
2024-02-18T00:17:23.092Z,15.77
2024-02-18T00:19:50.020Z,15.07
2024-02-18T00:22:16.837Z,18.83
2024-02-18T00:24:43.838Z,17.57
2024-02-18T00:27:12.000Z,19.17
2024-02-18T00:29:39.719Z,17.53
2024-02-18T00:32:07.106Z,16.40
2024-02-18T00:34:33.997Z,16.70
2024-02-18T00:37:01.013Z,18.47
2024-02-18T00:39:29.019Z,18.20
2024-02-18T00:41:55.779Z,19.17
2024-02-18T00:44:24.668Z,19.70
2024-02-18T00:47:01.112Z,21.73
2024-02-18T00:49:36.218Z,22.60
2024-02-18T00:52:04.384Z,22.13
2024-02-18T00:54:31.293Z,23.50
2024-02-18T00:56:58.135Z,23.87
2024-02-18T00:59:24.972Z,23.23
2024-02-18T01:01:51.768Z,23.43
2024-02-18T01:04:18.703Z,22.70
2024-02-18T01:06:45.576Z,20.80
2024-02-18T01:09:12.540Z,18.37
2024-02-18T01:11:39.341Z,20.47
2024-02-18T01:14:06.104Z,22.37
2024-02-18T01:16:32.885Z,20.37
2024-02-18T01:18:59.837Z,19.50
2024-02-18T01:21:26.708Z,21.20
2024-02-18T01:23:53.540Z,19.47
2024-02-18T01:26:20.486Z,20.53
2024-02-18T01:28:47.299Z,20.03
2024-02-18T01:31:14.282Z,21.60
2024-02-18T01:33:43.946Z,21.17
2024-02-18T01:36:10.905Z,20.90
2024-02-18T01:38:37.759Z,20.67
2024-02-18T01:41:04.782Z,22.03
2024-02-18T01:43:31.639Z,21.13
2024-02-18T01:45:58.744Z,20.47
2024-02-18T01:48:26.092Z,19.17
2024-02-18T01:50:54.521Z,21.60
2024-02-18T01:53:22.066Z,20.00
2024-02-18T01:55:49.751Z,20.83
2024-02-18T01:58:17.323Z,23.07
2024-02-18T02:00:45.007Z,23.00
2024-02-18T02:03:14.030Z,20.57
2024-02-18T02:05:42.914Z,19.60
2024-02-18T02:08:09.893Z,20.13
2024-02-18T02:10:37.598Z,19.63
2024-02-18T02:13:08.812Z,26.57
2024-02-18T02:15:35.929Z,24.23
2024-02-18T02:18:03.234Z,19.07
2024-02-18T02:20:30.922Z,18.93
2024-02-18T02:22:57.704Z,22.00
2024-02-18T02:25:24.905Z,20.37
2024-02-18T02:28:22.587Z,19.27
2024-02-18T02:30:50.611Z,18.57
2024-02-18T02:33:22.264Z,22.50
2024-02-18T02:35:49.700Z,25.20
2024-02-18T02:38:16.662Z,28.03
2024-02-18T02:40:43.728Z,22.47
2024-02-18T02:43:12.307Z,16.90
2024-02-18T02:45:39.315Z,32.90
2024-02-18T02:48:06.542Z,41.57
2024-02-18T02:50:36.765Z,19.83
2024-02-18T02:53:06.202Z,18.70
2024-02-18T02:55:33.307Z,16.70
2024-02-18T02:58:00.540Z,18.83
2024-02-18T03:00:27.480Z,18.73
2024-02-18T03:02:54.297Z,18.53
2024-02-18T03:05:21.227Z,17.67
2024-02-18T03:07:48.032Z,18.80
2024-02-18T03:10:14.991Z,18.70
2024-02-18T03:12:41.931Z,19.97
2024-02-18T03:15:09.195Z,19.20
2024-02-18T03:17:36.928Z,18.40
2024-02-18T03:20:08.504Z,19.37
2024-02-18T03:22:35.548Z,18.27
2024-02-18T03:25:02.822Z,17.93
2024-02-18T03:27:29.886Z,18.73
2024-02-18T03:29:56.690Z,16.90
2024-02-18T03:32:23.466Z,17.67
2024-02-18T03:34:50.677Z,17.13
2024-02-18T03:37:17.606Z,15.97
2024-02-18T03:39:44.413Z,15.50
2024-02-18T03:42:11.229Z,20.53
2024-02-18T03:44:37.969Z,17.80
2024-02-18T03:47:05.018Z,16.93
2024-02-18T03:49:31.945Z,26.73
2024-02-18T03:51:59.094Z,18.70
2024-02-18T03:54:27.802Z,14.93
2024-02-18T03:56:54.716Z,13.73
2024-02-18T03:59:22.066Z,13.90
2024-02-18T04:01:49.301Z,15.37
2024-02-18T04:04:16.714Z,13.90
2024-02-18T04:06:44.233Z,13.07
2024-02-18T04:09:14.309Z,13.57
2024-02-18T04:11:41.124Z,15.63
2024-02-18T04:14:08.933Z,12.83
2024-02-18T04:16:35.858Z,10.63
2024-02-18T04:19:02.903Z,11.93
2024-02-18T04:21:29.784Z,11.07
2024-02-18T04:23:56.665Z,10.70
2024-02-18T04:26:24.013Z,10.87
2024-02-18T04:28:50.896Z,8.67
2024-02-18T04:31:17.975Z,10.77
2024-02-18T04:33:44.967Z,11.50
2024-02-18T04:36:13.150Z,12.63
2024-02-18T04:38:41.037Z,13.00
2024-02-18T04:41:07.868Z,13.60
2024-02-18T04:43:34.706Z,13.23
2024-02-18T04:46:01.518Z,11.97
2024-02-18T04:48:28.456Z,13.63
2024-02-18T04:50:55.250Z,13.20
2024-02-18T04:53:22.065Z,15.80
2024-02-18T04:55:48.842Z,14.90
2024-02-18T04:58:15.640Z,13.97
2024-02-18T05:00:42.439Z,14.23
2024-02-18T05:03:09.230Z,15.23
2024-02-18T05:05:36.172Z,14.53
2024-02-18T05:08:03.113Z,12.63
2024-02-18T05:10:29.891Z,14.50
2024-02-18T05:12:56.712Z,14.97
2024-02-18T05:15:23.647Z,14.93
2024-02-18T05:17:50.507Z,14.10
2024-02-18T05:20:17.420Z,13.43
2024-02-18T05:22:45.130Z,12.83
2024-02-18T05:25:12.116Z,12.43
2024-02-18T05:27:39.130Z,12.73
2024-02-18T05:30:06.650Z,12.67
2024-02-18T05:32:33.505Z,12.30
2024-02-18T05:35:00.439Z,12.20
2024-02-18T05:37:27.226Z,11.70
2024-02-18T05:39:54.057Z,10.43
2024-02-18T05:42:20.894Z,11.57
2024-02-18T05:44:47.645Z,10.53
2024-02-18T05:47:14.405Z,11.17
2024-02-18T05:49:44.177Z,11.87
2024-02-18T05:52:11.983Z,11.83
2024-02-18T05:54:39.149Z,11.70
2024-02-18T05:57:08.167Z,15.90
2024-02-18T05:59:35.277Z,11.97
2024-02-18T06:02:02.127Z,11.53
2024-02-18T06:04:28.934Z,11.00
2024-02-18T06:06:55.911Z,11.40
2024-02-18T06:09:23.723Z,11.23
2024-02-18T06:11:55.161Z,11.67
2024-02-18T06:14:22.229Z,10.70
2024-02-18T06:16:49.052Z,11.07
2024-02-18T06:19:17.836Z,11.80
2024-02-18T06:21:45.298Z,9.70
2024-02-18T06:24:12.394Z,10.57
2024-02-18T06:26:42.422Z,9.40
2024-02-18T06:29:10.610Z,9.43
2024-02-18T06:31:37.434Z,9.37
2024-02-18T06:34:04.372Z,9.73
2024-02-18T06:36:37.159Z,9.43
2024-02-18T06:39:04.733Z,11.10
2024-02-18T06:41:33.000Z,9.07
2024-02-18T06:43:59.846Z,8.47
2024-02-18T06:46:26.731Z,8.90
2024-02-18T06:48:53.873Z,8.77
2024-02-18T06:51:20.798Z,9.20
2024-02-18T06:53:47.530Z,9.30
2024-02-18T06:56:17.798Z,9.57
2024-02-18T06:58:44.593Z,9.67
2024-02-18T07:01:11.539Z,10.10
2024-02-18T07:03:38.532Z,11.50
2024-02-18T07:06:05.523Z,9.60
2024-02-18T07:08:32.326Z,7.93
2024-02-18T07:10:59.205Z,8.43
2024-02-18T07:13:26.900Z,8.80
2024-02-18T07:15:53.956Z,7.87
2024-02-18T07:18:20.793Z,8.97
2024-02-18T07:20:47.614Z,8.30
2024-02-18T07:23:14.424Z,8.37
2024-02-18T07:25:43.708Z,9.93
2024-02-18T07:28:10.622Z,9.43
2024-02-18T07:30:37.521Z,9.40
2024-02-18T07:33:04.710Z,9.97
2024-02-18T07:35:31.486Z,9.43
2024-02-18T07:37:58.276Z,8.53
2024-02-18T07:40:25.022Z,8.37
2024-02-18T07:42:51.931Z,8.50
2024-02-18T07:45:19.366Z,8.43
2024-02-18T07:47:46.305Z,8.70
2024-02-18T07:50:13.186Z,8.03
2024-02-18T07:52:39.925Z,7.80
2024-02-18T07:55:07.056Z,8.70
2024-02-18T07:57:33.955Z,9.30
2024-02-18T08:00:00.786Z,9.20
2024-02-18T08:02:28.949Z,9.67
2024-02-18T08:04:55.818Z,10.10
2024-02-18T08:07:24.891Z,10.47
2024-02-18T08:09:52.803Z,12.90
2024-02-18T08:12:19.752Z,14.30
2024-02-18T08:14:46.620Z,15.43
2024-02-18T08:17:13.540Z,12.60
2024-02-18T08:19:40.425Z,11.10
2024-02-18T08:22:07.421Z,8.10
2024-02-18T08:24:34.443Z,6.83
2024-02-18T08:27:01.608Z,7.60
2024-02-18T08:29:29.020Z,7.13
2024-02-18T08:31:55.818Z,8.07
2024-02-18T08:34:23.793Z,7.57
2024-02-18T08:36:50.765Z,6.80
2024-02-18T08:39:17.539Z,7.20
2024-02-18T08:41:44.320Z,7.53
2024-02-18T08:44:11.223Z,8.02
2024-02-18T08:46:38.879Z,8.93
2024-02-18T08:49:05.761Z,8.07
2024-02-18T08:51:32.641Z,8.68
2024-02-18T08:53:59.513Z,8.90
2024-02-18T08:56:26.267Z,8.05
2024-02-18T08:58:53.137Z,8.63
2024-02-18T09:01:21.200Z,8.63
2024-02-18T09:03:48.336Z,7.60
2024-02-18T09:06:15.411Z,7.95
2024-02-18T09:08:43.502Z,7.28
2024-02-18T09:11:10.599Z,6.82
2024-02-18T09:13:37.495Z,7.32
2024-02-18T09:16:04.622Z,7.22
2024-02-18T09:18:31.518Z,7.43
2024-02-18T09:20:58.391Z,7.95
2024-02-18T09:23:25.157Z,8.25
2024-02-18T09:25:51.860Z,8.88
2024-02-18T09:28:19.805Z,7.38
2024-02-18T09:30:46.782Z,7.70
2024-02-18T09:33:14.020Z,7.43
2024-02-18T09:35:41.036Z,9.07
2024-02-18T09:38:10.533Z,7.70
2024-02-18T09:40:37.979Z,8.05
2024-02-18T09:43:05.062Z,8.02
2024-02-18T09:45:34.266Z,7.13
2024-02-18T09:48:03.272Z,7.80
2024-02-18T09:50:34.294Z,7.47
2024-02-18T09:53:03.448Z,8.45
2024-02-18T09:55:30.306Z,7.45
2024-02-18T09:57:57.129Z,7.97
2024-02-18T10:00:24.254Z,7.78
2024-02-18T10:02:51.267Z,8.00
2024-02-18T10:05:18.249Z,7.90
2024-02-18T10:07:45.101Z,8.10
2024-02-18T10:10:11.921Z,7.40
2024-02-18T10:12:39.476Z,8.27
2024-02-18T10:15:06.946Z,8.82
2024-02-18T10:17:34.807Z,8.70
2024-02-18T10:20:02.693Z,9.00
2024-02-18T10:22:30.093Z,10.07
2024-02-18T10:24:57.623Z,10.95
2024-02-18T10:27:24.729Z,11.57
2024-02-18T10:29:52.493Z,11.07
2024-02-18T10:32:20.726Z,10.75
2024-02-18T10:34:49.680Z,11.48
2024-02-18T10:37:29.457Z,11.07
2024-02-18T10:40:01.928Z,10.55
2024-02-18T10:42:30.244Z,9.88
2024-02-18T10:45:01.355Z,8.95
2024-02-18T10:47:30.683Z,9.30
2024-02-18T10:50:04.907Z,7.82
2024-02-18T10:52:49.401Z,6.75
2024-02-18T10:55:26.158Z,6.13
2024-02-18T10:58:01.580Z,5.97
2024-02-18T11:00:31.023Z,5.75
2024-02-18T11:03:19.078Z,5.88
2024-02-18T11:05:46.379Z,5.65
2024-02-18T11:08:13.732Z,5.55
2024-02-18T11:13:09.882Z,6.90
2024-02-18T11:15:37.505Z,6.00
2024-02-18T11:18:06.425Z,5.35
2024-02-18T11:20:33.947Z,4.90
2024-02-18T11:23:02.285Z,5.30
2024-02-18T11:25:29.062Z,4.72
2024-02-18T11:27:56.007Z,4.97
2024-02-18T11:30:22.944Z,4.93
2024-02-18T11:32:50.539Z,4.50
2024-02-18T11:35:20.630Z,4.75
2024-02-18T11:37:49.474Z,5.45
2024-02-18T11:40:19.863Z,5.13
2024-02-18T11:42:48.075Z,4.53
2024-02-18T11:45:24.658Z,5.30
2024-02-18T11:47:54.309Z,5.05
2024-02-18T11:50:21.312Z,6.15
2024-02-18T11:52:49.382Z,5.72
2024-02-18T11:55:25.169Z,4.97
2024-02-18T11:57:52.808Z,5.30
2024-02-18T12:00:20.453Z,6.47
2024-02-18T12:02:52.682Z,5.50
2024-02-18T12:05:22.295Z,5.32
2024-02-18T12:07:51.650Z,5.30
2024-02-18T12:10:21.778Z,6.45
2024-02-18T12:12:48.682Z,6.00
2024-02-18T12:15:31.939Z,5.40
2024-02-18T12:18:01.279Z,4.38
2024-02-18T12:20:29.254Z,4.35
2024-02-18T12:23:05.985Z,4.40
2024-02-18T12:25:42.153Z,5.00
2024-02-18T12:28:12.336Z,4.93
2024-02-18T12:30:39.480Z,5.43
2024-02-18T12:33:07.063Z,5.97
2024-02-18T12:35:37.084Z,5.68
2024-02-18T12:38:06.246Z,5.82
2024-02-18T12:40:34.688Z,5.10
2024-02-18T12:43:25.719Z,5.43
2024-02-18T12:45:52.584Z,5.18
2024-02-18T12:48:23.788Z,5.25
2024-02-18T12:51:12.490Z,5.53
2024-02-18T12:53:40.823Z,5.53
2024-02-18T12:56:09.719Z,6.32
2024-02-18T12:58:39.630Z,5.00
2024-02-18T13:01:06.938Z,5.53
2024-02-18T13:03:37.177Z,5.35
2024-02-18T13:06:05.421Z,4.80
2024-02-18T13:08:34.000Z,5.30
2024-02-18T13:11:01.044Z,4.80
2024-02-18T13:13:29.091Z,4.63
2024-02-18T13:15:56.418Z,5.25
2024-02-18T13:18:23.513Z,5.25
2024-02-18T13:20:50.353Z,4.90
2024-02-18T13:23:17.254Z,4.68
2024-02-18T13:25:44.075Z,5.05
2024-02-18T13:28:13.449Z,4.18
2024-02-18T13:30:40.378Z,4.38
2024-02-18T13:33:07.549Z,4.95
2024-02-18T13:35:34.704Z,4.43
2024-02-18T13:38:01.990Z,4.10
2024-02-18T13:40:31.121Z,3.83
2024-02-18T13:42:58.946Z,2.95
2024-02-18T13:45:26.846Z,3.15
2024-02-18T13:47:58.999Z,2.90
2024-02-18T13:50:27.266Z,3.15
2024-02-18T13:52:54.166Z,3.85
2024-02-18T13:55:21.005Z,3.25
2024-02-18T13:57:47.881Z,2.80
2024-02-18T14:00:15.876Z,2.80
2024-02-18T14:02:43.068Z,2.70
2024-02-18T14:05:12.255Z,2.47
2024-02-18T14:07:42.306Z,2.50
2024-02-18T14:10:09.352Z,2.28
2024-02-18T14:12:36.239Z,1.52
2024-02-18T14:15:03.143Z,1.30
2024-02-18T14:17:30.097Z,1.00
2024-02-18T14:19:57.590Z,1.13
2024-02-18T14:22:24.655Z,1.17
2024-02-18T14:24:51.822Z,1.10
2024-02-18T14:27:18.711Z,0.70
2024-02-18T14:29:45.588Z,0.80
2024-02-18T14:32:12.634Z,0.90
2024-02-18T14:34:39.592Z,0.70
2024-02-18T14:37:06.599Z,0.60
2024-02-18T14:39:33.878Z,0.70
2024-02-18T14:42:00.982Z,0.63
2024-02-18T14:44:30.249Z,0.70
2024-02-18T14:46:57.206Z,0.60
2024-02-18T14:49:29.996Z,0.43
2024-02-18T14:52:02.974Z,0.70
2024-02-18T14:54:29.826Z,0.85
2024-02-18T14:56:58.065Z,0.65
2024-02-18T14:59:24.892Z,0.63
2024-02-18T15:01:51.725Z,0.68
2024-02-18T15:04:18.541Z,0.55
2024-02-18T15:06:45.567Z,0.70
2024-02-18T15:09:14.275Z,0.60
2024-02-18T15:11:41.252Z,0.70
2024-02-18T15:14:07.994Z,0.75
2024-02-18T15:16:34.781Z,0.70
2024-02-18T15:19:01.652Z,0.50
2024-02-18T15:21:29.406Z,0.90
2024-02-18T15:23:56.250Z,1.33
2024-02-18T15:26:23.021Z,0.80
2024-02-18T15:28:49.722Z,0.80
2024-02-18T15:31:16.683Z,0.70
2024-02-18T15:33:44.585Z,1.05
2024-02-18T15:36:11.470Z,0.93
2024-02-18T15:38:38.266Z,0.80
2024-02-18T15:41:06.418Z,1.13
2024-02-18T15:43:33.192Z,0.90
2024-02-18T15:46:00.210Z,0.90
2024-02-18T15:48:27.330Z,0.88
2024-02-18T15:50:54.108Z,0.82
2024-02-18T15:53:20.875Z,0.75
2024-02-18T15:55:54.052Z,1.10
2024-02-18T15:58:28.738Z,0.90
2024-02-18T16:00:55.788Z,0.80
2024-02-18T16:03:22.727Z,0.77
2024-02-18T16:05:49.690Z,1.00
2024-02-18T16:08:16.714Z,0.80
2024-02-18T16:10:43.545Z,0.70
2024-02-18T16:13:10.531Z,0.97
2024-02-18T16:15:37.525Z,0.80
2024-02-18T16:18:15.985Z,0.70
2024-02-18T16:20:44.298Z,0.90
2024-02-18T16:23:11.027Z,1.03
2024-02-18T16:25:37.798Z,0.80
2024-02-18T16:28:04.814Z,1.00
2024-02-18T16:30:31.664Z,0.70
2024-02-18T16:32:58.489Z,0.90
2024-02-18T16:35:27.800Z,0.97
2024-02-18T16:37:54.897Z,0.80
2024-02-18T16:40:21.706Z,0.90
2024-02-18T16:42:49.477Z,0.87
2024-02-18T16:45:17.690Z,0.90
2024-02-18T16:47:45.485Z,1.00
2024-02-18T16:50:12.752Z,1.20
2024-02-18T16:52:39.613Z,1.20
2024-02-18T16:55:07.072Z,1.03
2024-02-18T16:57:35.073Z,1.30
2024-02-18T17:00:03.015Z,1.20
2024-02-18T17:02:29.841Z,1.07
2024-02-18T17:04:56.580Z,1.27
2024-02-18T17:07:24.070Z,1.40
2024-02-18T17:09:50.895Z,1.07
2024-02-18T17:12:17.872Z,1.07
2024-02-18T17:14:44.624Z,1.37
2024-02-18T17:17:11.360Z,1.00
2024-02-18T17:19:38.432Z,1.80
2024-02-18T17:22:08.159Z,1.60
2024-02-18T17:24:38.311Z,1.80
2024-02-18T17:27:06.482Z,2.00
2024-02-18T17:29:33.195Z,2.23
2024-02-18T17:32:01.044Z,1.57
2024-02-18T17:34:27.978Z,1.30
2024-02-18T17:36:56.132Z,1.57
2024-02-18T17:39:24.603Z,1.70
2024-02-18T17:41:52.049Z,1.50
2024-02-18T17:44:19.561Z,1.63
2024-02-18T17:46:46.454Z,1.90
2024-02-18T17:49:13.374Z,2.10
2024-02-18T17:51:41.156Z,2.20
2024-02-18T17:54:08.194Z,2.87
2024-02-18T17:56:36.593Z,2.40
2024-02-18T17:59:08.805Z,2.10
2024-02-18T18:01:36.015Z,2.53
2024-02-18T18:04:03.108Z,2.73
2024-02-18T18:06:33.330Z,3.50
2024-02-18T18:09:02.854Z,3.77
2024-02-18T18:11:31.192Z,2.27
2024-02-18T18:13:58.858Z,2.97
2024-02-18T18:16:27.833Z,2.27
2024-02-18T18:18:55.012Z,2.20
2024-02-18T18:21:21.755Z,2.00
2024-02-18T18:23:52.564Z,2.57
2024-02-18T18:26:23.336Z,3.13
2024-02-18T18:28:51.332Z,2.50
2024-02-18T18:31:18.631Z,2.83
2024-02-18T18:33:47.440Z,3.00
2024-02-18T18:36:14.985Z,2.50
2024-02-18T18:38:42.019Z,2.13
2024-02-18T18:41:08.867Z,2.50
2024-02-18T18:43:35.697Z,2.47
2024-02-18T18:46:02.773Z,2.80
2024-02-18T18:48:30.404Z,2.57
2024-02-18T18:50:57.424Z,2.13
2024-02-18T18:53:24.736Z,2.03
2024-02-18T18:55:51.678Z,1.90
2024-02-18T18:58:18.967Z,2.23
2024-02-18T19:00:46.028Z,2.40
2024-02-18T19:03:12.896Z,2.20
2024-02-18T19:05:41.325Z,2.50
2024-02-18T19:08:08.211Z,2.03
2024-02-18T19:10:35.863Z,2.10
2024-02-18T19:13:08.052Z,1.93
2024-02-18T19:15:41.655Z,2.00
2024-02-18T19:18:10.832Z,1.73
2024-02-18T19:20:37.684Z,2.07
2024-02-18T19:23:04.679Z,2.17
2024-02-18T19:25:31.509Z,2.97
2024-02-18T19:27:58.813Z,3.50
2024-02-18T19:30:26.121Z,2.70
2024-02-18T19:32:52.954Z,2.67
2024-02-18T19:35:22.431Z,2.00
2024-02-18T19:37:50.492Z,1.90
2024-02-18T19:40:17.441Z,2.30
2024-02-18T19:42:46.021Z,2.07
2024-02-18T19:45:12.906Z,2.20
2024-02-18T19:47:40.124Z,2.97
2024-02-18T19:50:07.997Z,2.97
2024-02-18T19:52:34.841Z,3.20
2024-02-18T19:55:08.329Z,2.90
2024-02-18T19:57:37.720Z,4.13
2024-02-18T20:00:05.897Z,5.03
2024-02-18T20:02:37.461Z,4.63
2024-02-18T20:05:04.790Z,5.93
2024-02-18T20:07:31.887Z,7.60
2024-02-18T20:09:58.843Z,6.83
2024-02-18T20:12:25.868Z,5.67
2024-02-18T20:14:52.624Z,8.03
2024-02-18T20:17:19.439Z,7.77
2024-02-18T20:19:46.449Z,6.63
2024-02-18T20:22:14.053Z,8.07
2024-02-18T20:24:45.292Z,8.50
2024-02-18T20:27:12.172Z,8.10
2024-02-18T20:29:42.186Z,9.90
2024-02-18T20:32:09.871Z,8.20
2024-02-18T20:34:41.728Z,9.10
2024-02-18T20:37:08.839Z,8.23
2024-02-18T20:39:36.451Z,9.20
2024-02-18T20:42:03.463Z,9.27
2024-02-18T20:44:30.262Z,8.47
2024-02-18T20:46:57.121Z,8.93
2024-02-18T20:49:25.074Z,9.50
2024-02-18T20:51:53.052Z,9.17
2024-02-18T20:54:22.960Z,9.87
2024-02-18T20:56:49.719Z,8.50
2024-02-18T20:59:16.543Z,8.70
2024-02-18T21:01:44.116Z,8.67
2024-02-18T21:04:11.036Z,8.27
2024-02-18T21:06:38.069Z,7.73
2024-02-18T21:09:05.136Z,8.67
2024-02-18T21:11:31.991Z,8.97
2024-02-18T21:13:58.883Z,8.47
2024-02-18T21:16:25.686Z,8.03
2024-02-18T21:18:52.897Z,7.33
2024-02-18T21:21:19.828Z,8.00
2024-02-18T21:23:46.590Z,8.07
2024-02-18T21:26:22.460Z,7.70
2024-02-18T21:28:50.589Z,8.00
2024-02-18T21:31:17.951Z,8.13
2024-02-18T21:33:45.196Z,7.80
2024-02-18T21:36:17.839Z,8.77
2024-02-18T21:38:44.814Z,9.17
2024-02-18T21:41:11.497Z,8.10
2024-02-18T21:43:39.900Z,8.00
2024-02-18T21:46:10.151Z,9.17
2024-02-18T21:48:37.335Z,8.53
2024-02-18T21:51:04.427Z,8.80
2024-02-18T21:53:31.196Z,8.63
2024-02-18T21:55:58.079Z,8.50
2024-02-18T21:58:25.074Z,8.43
2024-02-18T22:00:52.031Z,9.07
2024-02-18T22:03:18.830Z,8.60
2024-02-18T22:05:45.611Z,8.30
2024-02-18T22:08:12.440Z,8.60
2024-02-18T22:10:39.308Z,8.13
2024-02-18T22:13:06.334Z,10.27
2024-02-18T22:15:33.448Z,8.53
2024-02-18T22:18:00.389Z,7.87
2024-02-18T22:20:27.956Z,8.83
2024-02-18T22:22:55.805Z,7.87
2024-02-18T22:25:22.611Z,8.60
2024-02-18T22:27:49.392Z,7.60
2024-02-18T22:30:17.266Z,7.47
2024-02-18T22:32:44.307Z,8.40
2024-02-18T22:35:11.363Z,8.07
2024-02-18T22:37:38.209Z,8.23
2024-02-18T22:40:07.364Z,7.43
2024-02-18T22:42:34.497Z,7.53
2024-02-18T22:45:01.504Z,7.87
2024-02-18T22:47:28.248Z,8.73
2024-02-18T22:49:54.976Z,8.20
2024-02-18T22:52:21.876Z,8.27
2024-02-18T22:54:49.507Z,8.10
2024-02-18T22:57:16.796Z,8.00
2024-02-18T22:59:44.956Z,7.60
2024-02-18T23:02:11.716Z,7.73
2024-02-18T23:04:38.472Z,7.70
2024-02-18T23:07:07.836Z,7.27
2024-02-18T23:09:35.323Z,7.80
2024-02-18T23:12:02.544Z,8.67
2024-02-18T23:14:29.710Z,7.70
2024-02-18T23:16:56.549Z,8.07
2024-02-18T23:19:23.627Z,7.93
2024-02-18T23:21:50.497Z,8.13
2024-02-18T23:24:17.410Z,8.40
2024-02-18T23:26:44.172Z,8.07
2024-02-18T23:29:11.104Z,7.67
2024-02-18T23:31:39.155Z,8.37
2024-02-18T23:34:08.508Z,7.83
2024-02-18T23:36:35.576Z,7.30
2024-02-18T23:39:02.341Z,6.53
2024-02-18T23:41:29.326Z,7.23
2024-02-18T23:43:56.200Z,6.20
2024-02-18T23:46:23.123Z,5.20
2024-02-18T23:48:50.078Z,4.53
2024-02-18T23:51:17.141Z,3.83
2024-02-18T23:53:43.970Z,3.50
2024-02-18T23:56:10.750Z,4.00
2024-02-18T23:58:37.667Z,3.80
